• Join FlightAware (Why Join?)
  • Login
  • US Flag 
04:00AM EDT


 

Airport Tracker/Info


-or-


 

Live Flight TrackerFlight Track Log ✈ DAL3793 ✈ 05-May-2013 ✈ KMHT - KDTW

Flight Track Log - Related Links

Times and Time Zones

All times are in EDT time to prevent confusion due to time zone crossing. See the DAL3793 flight status page for this flight to view local times or setup timezone preferences in your user account.

Time Position Orientation Groundspeed Altitude Reporting Facility
EDT Latitude Longitude Course Direction KTS MPH feet Rate Location/Type
06:25PM 42.9167 -71.4167 216° Southwest 144 166 1,200  Level KA90
06:26PM 42.8667 -71.4667 216° Southwest 204 235 3,700 2,400 Climbing KA90
06:27PM 42.8872 -71.6128 281° West 256 295 7,800 2,340 Climbing Boston Center
06:28PM 42.9378 -71.6828 315° West 267 307 9,900 1,440 Climbing Boston Center
06:29PM 43.0008 -71.7814 311° West 307 353 10,700 1,440 Climbing Boston Center
06:30PM 43.0367 -71.8833 296° West 329 379 12,800 2,100 Climbing Boston Center
06:31PM 43.0436 -72.0367 274° West 352 405 14,900 2,100 Climbing Boston Center
06:32PM 43.0483 -72.1589 273° West 371 427 17,000 1,740 Climbing Boston Center
06:33PM 43.0569 -72.3178 274° West 377 434 18,400 1,440 Climbing Boston Center
06:34PM 43.0694 -72.4628 277° West 383 441 19,900 1,320 Climbing Boston Center
06:35PM 43.0756 -72.6192 273° West 396 456 21,100 1,260 Climbing Boston Center
06:36PM 43.0731 -72.7756 269° West 408 470 22,500 1,260 Climbing Boston Center
06:37PM 43.0808 -72.9375 274° West 419 482 23,700 1,080 Climbing Boston Center
06:38PM 43.0906 -73.0825 275° West 424 488 24,700 900 Climbing Boston Center
06:39PM 43.0958 -73.2475 273° West 424 488 25,600 540 Climbing Boston Center
06:41PM 43.0718 -73.4169 273° West  Level FlightAware Approximate
06:42PM 43.1031 -73.5975 273° West 434 499 26,600  Level Boston Center
06:43PM 43.1092 -73.8022 272° West 446 513 27,300 540 Climbing Boston Center
06:44PM 43.1153 -73.9731 273° West 451 519 27,700 300 Climbing Boston Center
06:45PM 43.1214 -74.1411 273° West 451 519 28,000 120 Climbing Boston Center
06:46PM 43.1247 -74.3175 272° West 456 525 28,000  Level Boston Center
06:47PM 43.1303 -74.4914 273° West 462 532 28,000  Level Boston Center
06:48PM 43.1353 -74.6622 272° West 462 532 28,000  Level Boston Center
06:49PM 43.1400 -74.8389 272° West 462 532 28,000  Level Boston Center
06:50PM 43.1425 -75.0125 271° West 462 532 28,000  Level Boston Center
06:51PM 43.1336 -75.2169 267° West 457 526 28,000  Level Boston Center
06:52PM 43.1281 -75.3533 267° West 457 526 28,000  Level Boston Center
06:53PM 43.1183 -75.5636 266° West 457 526 28,000  Level Boston Center
06:55PM 43.1028 -75.8869 266° West 457 526 28,000  Level Boston Center
06:59PM 43.0686 -76.5275 266° West 464 534 28,000  Level Cleveland Center
07:00PM 43.0564 -76.7186 265° West 464 534 28,000  Level Cleveland Center
07:01PM 43.0472 -76.8869 266° West 470 541 28,000  Level Cleveland Center
07:02PM 43.0358 -77.0581 265° West 459 528 28,000  Level Cleveland Center
07:03PM 43.0264 -77.2261 266° West 459 528 28,000  Level Cleveland Center
07:04PM 43.0144 -77.3972 265° West 459 528 28,000  Level Cleveland Center
07:05PM 43.0044 -77.5653 265° West 459 528 28,000  Level Cleveland Center
07:06PM 42.9942 -77.7333 265° West 459 528 28,000  Level Cleveland Center
07:07PM 42.9836 -77.9011 265° West 459 528 28,000  Level Cleveland Center
07:08PM 42.9706 -78.0692 264° West 459 528 28,000  Level Cleveland Center
07:09PM 42.9597 -78.2400 265° West 454 522 28,000  Level Cleveland Center
07:10PM 42.9481 -78.3936 264° West 454 522 28,000  Level Cleveland Center
07:11PM 42.9364 -78.5611 265° West 454 522 28,000  Level Cleveland Center
07:12PM 42.9183 -78.7264 262° West 454 522 28,000  Level Cleveland Center
07:13PM 42.8939 -78.8942 259° West 449 517 28,000  Level Cleveland Center
07:14PM 42.8733 -79.0592 260° West 449 517 28,000  Level Cleveland Center
07:15PM 42.8442 -79.2269 257° West 449 517 28,000  Level Cleveland Center
07:16PM 42.8208 -79.3917 259° West 449 517 28,000  Level Cleveland Center
07:17PM 42.7994 -79.5533 260° West 449 517 28,000  Level Cleveland Center
07:18PM 42.7739 -79.7206 258° West 449 517 28,000  Level Cleveland Center
07:19PM 42.7519 -79.8878 260° West 449 517 28,000  Level Cleveland Center
07:20PM 42.7425 -80.0603 266° West 454 522 28,000  Level Cleveland Center
07:21PM 42.7369 -80.2328 268° West 454 522 28,000  Level Cleveland Center
07:22PM 42.7289 -80.3967 266° West 449 517 28,000  Level Cleveland Center
07:23PM 42.7208 -80.5692 266° West 449 517 28,000 -300 Level Cleveland Center
07:24PM 42.7144 -80.7331 267° West 449 517 27,500 -780 Descending Cleveland Center
07:25PM 42.7056 -80.9053 266° West 454 522 26,500 -1,020 Descending Cleveland Center
07:26PM 42.6883 -81.0689 262° West 454 522 25,500 -1,020 Descending Cleveland Center
07:27PM 42.6689 -81.2297 261° West 443 510 24,500 -780 Descending Cleveland Center
07:28PM 42.6469 -81.4075 261° West 438 504 24,000 -780 Descending Cleveland Center
07:29PM 42.6289 -81.5681 261° West 438 504 23,000 -1,500 Descending Cleveland Center
07:30PM 42.6086 -81.7314 260° West 443 510 21,100 -2,040 Descending Cleveland Center
07:31PM 42.5883 -81.8889 260° West 436 502 19,000 -2,040 Descending Cleveland Center
07:32PM 42.5719 -82.0353 261° West 422 486 17,100 -1,980 Descending Cleveland Center
07:33PM 42.5533 -82.1814 260° West 411 473 15,100 -2,040 Descending Cleveland Center
07:33PM 42.5436 -82.2825 263° West 376 433 13,700 -1,800 Descending Cleveland Center
07:34PM 42.5347 -82.3217 253° West 398 458 13,300 -1,500 Descending Cleveland Center
07:34PM 42.5247 -82.4200 262° West 367 422 12,200 -1,320 Descending Cleveland Center
07:35PM 42.5178 -82.4564 255° West 385 443 12,000 -180 Descending Cleveland Center
07:35PM 42.4972 -82.5686 256° West 361 415 12,000  Level Cleveland Center
07:36PM 42.4553 -82.6939 246° West 359 413 12,000  Level Cleveland Center
07:37PM 42.4136 -82.8133 245° Southwest 362 417 12,000  Level Cleveland Center
07:38PM 42.3672 -82.9383 243° Southwest 360 414 12,000  Level Cleveland Center
07:39PM 42.3250 -83.0603 245° Southwest 360 414 12,000  Level Cleveland Center
07:40PM 42.2900 -83.1458 241° Southwest 257 296 12,000  Level Cleveland Center
07:41PM 42.2286 -83.1883 207° Southwest 245 282 12,000 -780 Level Cleveland Center
07:42PM 42.1672 -83.2250 204° Southwest 240 276 10,500 -1,440 Descending Cleveland Center
07:43PM 42.1100 -83.2647 207° Southwest 234 269 9,100 -1,500 Descending Cleveland Center
07:44PM 42.0508 -83.3014 205° Southwest 231 266 7,500 -1,620 Descending Cleveland Center
07:45PM 41.9894 -83.3406 205° Southwest 232 267 5,900 -1,560 Descending Cleveland Center
07:46PM 41.9914 -83.4300 272° West 243 280 4,400 -1,380 Descending Cleveland Center
07:47PM 42.0397 -83.4908 317° Northwest 220 253 3,000 -660 Descending Cleveland Center
07:49PM 42.0883 -83.4736 15° North 169 194 3,000 -300 Level Cleveland Center
07:50PM 42.1267 -83.4417 32° Northeast 153 176 2,400 -720 Descending Cleveland Center
07:51PM 42.1606 -83.4153 30° Northeast 131 151 1,600 -780 Descending Cleveland Center
07:52PM 42.1944 -83.3917 27° Northeast 134 154 900 -720 Descending Cleveland Center